sensor_id;sensor_type;location;lat;lon;timestamp;pressure;altitude;pressure_sealevel;temperature;humidity
22047;BME280;11187;49.412;20.956;2023-01-28T00:01:21;95090.72;;;-2.95;100.00
22047;BME280;11187;49.412;20.956;2023-01-28T00:03:55;95081.47;;;-2.96;100.00
22047;BME280;11187;49.412;20.956;2023-01-28T00:06:41;95084.06;;;-2.95;100.00
22047;BME280;11187;49.412;20.956;2023-01-28T00:09:15;95076.69;;;-2.90;100.00
22047;BME280;11187;49.412;20.956;2023-01-28T00:12:01;95083.22;;;-2.94;100.00
22047;BME280;11187;49.412;20.956;2023-01-28T00:14:35;95084.13;;;-2.91;100.00
22047;BME280;11187;49.412;20.956;2023-01-28T00:17:28;95089.22;;;-2.90;100.00
22047;BME280;11187;49.412;20.956;2023-01-28T00:20:25;95085.84;;;-2.90;100.00
22047;BME280;11187;49.412;20.956;2023-01-28T00:23:20;95089.97;;;-2.92;100.00
22047;BME280;11187;49.412;20.956;2023-01-28T00:26:14;95084.97;;;-2.92;100.00
22047;BME280;11187;49.412;20.956;2023-01-28T00:29:08;95088.38;;;-2.90;100.00
22047;BME280;11187;49.412;20.956;2023-01-28T00:32:02;95089.16;;;-2.91;100.00
22047;BME280;11187;49.412;20.956;2023-01-28T00:34:56;95090.81;;;-2.92;100.00
22047;BME280;11187;49.412;20.956;2023-01-28T00:37:30;95089.16;;;-2.91;100.00
22047;BME280;11187;49.412;20.956;2023-01-28T00:40:16;95096.66;;;-2.91;100.00
22047;BME280;11187;49.412;20.956;2023-01-28T00:42:50;95093.41;;;-2.89;100.00
22047;BME280;11187;49.412;20.956;2023-01-28T00:45:36;95091.72;;;-2.90;100.00
22047;BME280;11187;49.412;20.956;2023-01-28T00:48:11;95087.50;;;-2.91;100.00
22047;BME280;11187;49.412;20.956;2023-01-28T00:50:57;95092.47;;;-2.92;100.00
22047;BME280;11187;49.412;20.956;2023-01-28T00:53:31;95094.91;;;-2.94;100.00
22047;BME280;11187;49.412;20.956;2023-01-28T00:56:25;95089.06;;;-2.95;100.00
22047;BME280;11187;49.412;20.956;2023-01-28T00:58:59;95089.84;;;-2.96;100.00
22047;BME280;11187;49.412;20.956;2023-01-28T01:01:45;95086.56;;;-2.95;100.00
22047;BME280;11187;49.412;20.956;2023-01-28T01:04:19;95095.72;;;-2.95;100.00
22047;BME280;11187;49.412;20.956;2023-01-28T01:07:12;95098.25;;;-2.94;100.00
22047;BME280;11187;49.412;20.956;2023-01-28T01:09:46;95095.72;;;-2.95;100.00
22047;BME280;11187;49.412;20.956;2023-01-28T01:12:40;95095.72;;;-2.95;100.00
22047;BME280;11187;49.412;20.956;2023-01-28T01:15:33;95096.66;;;-2.91;100.00
22047;BME280;11187;49.412;20.956;2023-01-28T01:18:07;95099.09;;;-2.93;100.00
22047;BME280;11187;49.412;20.956;2023-01-28T01:20:53;95099.91;;;-2.94;100.00
22047;BME280;11187;49.412;20.956;2023-01-28T01:23:31;95096.59;;;-2.93;100.00
22047;BME280;11187;49.412;20.956;2023-01-28T01:26:24;95104.19;;;-2.91;100.00
22047;BME280;11187;49.412;20.956;2023-01-28T01:29:18;95098.25;;;-2.94;100.00
22047;BME280;11187;49.412;20.956;2023-01-28T01:31:52;95099.09;;;-2.93;100.00
22047;BME280;11187;49.412;20.956;2023-01-28T01:34:45;95108.25;;;-2.95;100.00
22047;BME280;11187;49.412;20.956;2023-01-28T01:37:42;95099.91;;;-2.94;100.00
22047;BME280;11187;49.412;20.956;2023-01-28T01:40:36;95100.81;;;-2.92;100.00
22047;BME280;11187;49.412;20.956;2023-01-28T01:46:42;95110.84;;;-2.92;100.00
22047;BME280;11187;49.412;20.956;2023-01-28T01:49:30;95104.25;;;-2.90;100.00
22047;BME280;11187;49.412;20.956;2023-01-28T01:52:09;95104.13;;;-2.93;100.00
22047;BME280;11187;49.412;20.956;2023-01-28T01:55:06;95105.75;;;-2.95;100.00
22047;BME280;11187;49.412;20.956;2023-01-28T01:58:06;95113.34;;;-2.92;100.00
22047;BME280;11187;49.412;20.956;2023-01-28T02:01:01;95103.34;;;-2.92;100.00
22047;BME280;11187;49.412;20.956;2023-01-28T02:04:03;95114.19;;;-2.91;100.00
22047;BME280;11187;49.412;20.956;2023-01-28T02:06:51;95112.34;;;-2.97;100.00
22047;BME280;11187;49.412;20.956;2023-01-28T02:09:30;95102.38;;;-2.96;100.00
22047;BME280;11187;49.412;20.956;2023-01-28T02:12:23;95112.44;;;-2.94;100.00
22047;BME280;11187;49.412;20.956;2023-01-28T02:15:02;95112.16;;;-3.03;100.00
22047;BME280;11187;49.412;20.956;2023-01-28T02:17:51;95108.03;;;-3.01;100.00
22047;BME280;11187;49.412;20.956;2023-01-28T02:23:58;95115.66;;;-2.98;100.00
22047;BME280;11187;49.412;20.956;2023-01-28T02:27:23;95110.63;;;-2.98;100.00
22047;BME280;11187;49.412;20.956;2023-01-28T02:30:08;95107.94;;;-3.04;100.00
22047;BME280;11187;49.412;20.956;2023-01-28T02:33:04;95110.41;;;-3.06;100.00
22047;BME280;11187;49.412;20.956;2023-01-28T02:35:52;95106.31;;;-3.02;100.00
22047;BME280;11187;49.412;20.956;2023-01-28T02:38:47;95110.63;;;-2.98;100.00
22047;BME280;11187;49.412;20.956;2023-01-28T02:41:45;95105.53;;;-3.01;100.00
22047;BME280;11187;49.412;20.956;2023-01-28T02:44:34;95119.75;;;-3.00;100.00
22047;BME280;11187;49.412;20.956;2023-01-28T02:47:11;95117.25;;;-3.00;100.00
22047;BME280;11187;49.412;20.956;2023-01-28T02:50:17;95123.13;;;-3.00;100.00
22047;BME280;11187;49.412;20.956;2023-01-28T02:56:32;95113.13;;;-3.00;100.00
22047;BME280;11187;49.412;20.956;2023-01-28T03:05:25;95117.31;;;-2.99;100.00
22047;BME280;11187;49.412;20.956;2023-01-28T03:08:12;95118.13;;;-3.00;100.00
22047;BME280;11187;49.412;20.956;2023-01-28T03:11:04;95123.13;;;-3.00;100.00
22047;BME280;11187;49.412;20.956;2023-01-28T03:14:16;95119.81;;;-2.99;100.00
22047;BME280;11187;49.412;20.956;2023-01-28T03:17:16;95121.47;;;-2.99;100.00
22047;BME280;11187;49.412;20.956;2023-01-28T03:20:26;95120.66;;;-2.98;100.00
22047;BME280;11187;49.412;20.956;2023-01-28T03:26:40;95106.31;;;-3.02;100.00
22047;BME280;11187;49.412;20.956;2023-01-28T03:29:58;95108.72;;;-3.05;100.00
22047;BME280;11187;49.412;20.956;2023-01-28T03:32:52;95111.31;;;-3.04;100.00
22047;BME280;11187;49.412;20.956;2023-01-28T03:36:06;95114.44;;;-3.09;100.00
22047;BME280;11187;49.412;20.956;2023-01-28T03:39:27;95112.69;;;-3.12;100.00
22047;BME280;11187;49.412;20.956;2023-01-28T03:42:21;95111.09;;;-3.10;100.00
22047;BME280;11187;49.412;20.956;2023-01-28T03:44:55;95116.09;;;-3.10;100.00
22047;BME280;11187;49.412;20.956;2023-01-28T03:47:44;95114.41;;;-3.11;100.00
22047;BME280;11187;49.412;20.956;2023-01-28T03:50:18;95105.88;;;-3.16;100.00
22047;BME280;11187;49.412;20.956;2023-01-28T03:53:11;95110.13;;;-3.13;100.00
22047;BME280;11187;49.412;20.956;2023-01-28T03:56:05;95104.25;;;-3.16;100.00
22047;BME280;11187;49.412;20.956;2023-01-28T03:58:39;95100.97;;;-3.13;100.00
22047;BME280;11187;49.412;20.956;2023-01-28T04:01:31;95106.91;;;-3.11;100.00
22047;BME280;11187;49.412;20.956;2023-01-28T04:04:05;95112.53;;;-3.17;100.00
22047;BME280;11187;49.412;20.956;2023-01-28T04:07:01;95109.97;;;-3.18;100.00
22047;BME280;11187;49.412;20.956;2023-01-28T04:09:38;95116.84;;;-3.12;100.00
22047;BME280;11187;49.412;20.956;2023-01-28T04:12:34;95112.78;;;-3.09;100.00
22047;BME280;11187;49.412;20.956;2023-01-28T04:15:29;95117.78;;;-3.09;100.00
22047;BME280;11187;49.412;20.956;2023-01-28T04:18:23;95120.09;;;-3.15;100.00
22047;BME280;11187;49.412;20.956;2023-01-28T04:21:17;95126.66;;;-3.19;100.00
22047;BME280;11187;49.412;20.956;2023-01-28T04:24:11;95128.41;;;-3.16;100.00
22047;BME280;11187;49.412;20.956;2023-01-28T04:27:05;95133.38;;;-3.18;100.00
22047;BME280;11187;49.412;20.956;2023-01-28T04:29:39;95128.47;;;-3.15;100.00
22047;BME280;11187;49.412;20.956;2023-01-28T04:32:25;95128.56;;;-3.11;100.00
22047;BME280;11187;49.412;20.956;2023-01-28T04:34:59;95136.19;;;-3.08;100.00
22047;BME280;11187;49.412;20.956;2023-01-28T04:37:45;95128.69;;;-3.08;100.00
22047;BME280;11187;49.412;20.956;2023-01-28T04:40:19;95133.00;;;-3.04;100.00
22047;BME280;11187;49.412;20.956;2023-01-28T04:43:05;95134.63;;;-3.05;100.00
22047;BME280;11187;49.412;20.956;2023-01-28T04:45:39;95138.03;;;-3.03;100.00
22047;BME280;11187;49.412;20.956;2023-01-28T04:48:32;95147.31;;;-3.00;100.00
22047;BME280;11187;49.412;20.956;2023-01-28T04:51:26;95145.56;;;-3.03;100.00
22047;BME280;11187;49.412;20.956;2023-01-28T04:54:00;95142.13;;;-3.05;100.00
22047;BME280;11187;49.412;20.956;2023-01-28T04:56:53;95147.91;;;-3.07;100.00
22047;BME280;11187;49.412;20.956;2023-01-28T04:59:28;95143.78;;;-3.05;100.00
22047;BME280;11187;49.412;20.956;2023-01-28T05:02:21;95149.63;;;-3.06;100.00
22047;BME280;11187;49.412;20.956;2023-01-28T05:05:15;95153.66;;;-3.10;100.00
22047;BME280;11187;49.412;20.956;2023-01-28T05:08:09;95147.69;;;-3.13;100.00
22047;BME280;11187;49.412;20.956;2023-01-28T05:11:03;95154.34;;;-3.14;100.00
22047;BME280;11187;49.412;20.956;2023-01-28T05:13:37;95150.16;;;-3.15;100.00
22047;BME280;11187;49.412;20.956;2023-01-28T05:16:23;95154.31;;;-3.16;100.00
22047;BME280;11187;49.412;20.956;2023-01-28T05:18:57;95160.09;;;-3.17;100.00
22047;BME280;11187;49.412;20.956;2023-01-28T05:21:43;95154.31;;;-3.16;100.00
22047;BME280;11187;49.412;20.956;2023-01-28T05:24:37;95162.69;;;-3.13;100.00
22047;BME280;11187;49.412;20.956;2023-01-28T05:27:26;95161.06;;;-3.13;100.00
22047;BME280;11187;49.412;20.956;2023-01-28T05:30:07;95166.03;;;-3.15;100.00
22047;BME280;11187;49.412;20.956;2023-01-28T05:32:47;95171.09;;;-3.13;100.00
22047;BME280;11187;49.412;20.956;2023-01-28T05:35:26;95167.03;;;-3.09;100.00
22047;BME280;11187;49.412;20.956;2023-01-28T05:38:08;95172.94;;;-3.07;100.00
22047;BME280;11187;49.412;20.956;2023-01-28T05:40:48;95176.19;;;-3.10;100.00
22047;BME280;11187;49.412;20.956;2023-01-28T05:43:27;95178.69;;;-3.10;100.00
22047;BME280;11187;49.412;20.956;2023-01-28T05:46:07;95176.13;;;-3.11;100.00
22047;BME280;11187;49.412;20.956;2023-01-28T05:48:47;95180.34;;;-3.10;100.00
22047;BME280;11187;49.412;20.956;2023-01-28T05:51:29;95182.03;;;-3.11;100.00
22047;BME280;11187;49.412;20.956;2023-01-28T05:54:10;95182.06;;;-3.09;100.00
22047;BME280;11187;49.412;20.956;2023-01-28T05:56:50;95192.13;;;-3.08;100.00
22047;BME280;11187;49.412;20.956;2023-01-28T05:59:26;95188.50;;;-3.16;100.00
22047;BME280;11187;49.412;20.956;2023-01-28T06:02:21;95189.38;;;-3.16;100.00
22047;BME280;11187;49.412;20.956;2023-01-28T06:04:55;95194.47;;;-3.12;100.00
22047;BME280;11187;49.412;20.956;2023-01-28T06:07:45;95201.06;;;-3.15;100.00
22047;BME280;11187;49.412;20.956;2023-01-28T06:10:19;95203.53;;;-3.16;100.00
22047;BME280;11187;49.412;20.956;2023-01-28T06:13:12;95201.88;;;-3.16;100.00
22047;BME280;11187;49.412;20.956;2023-01-28T06:16:07;95199.38;;;-3.16;100.00
22047;BME280;11187;49.412;20.956;2023-01-28T06:18:40;95209.41;;;-3.16;100.00
22047;BME280;11187;49.412;20.956;2023-01-28T06:21:27;95204.25;;;-3.19;100.00
22047;BME280;11187;49.412;20.956;2023-01-28T06:24:21;95215.88;;;-3.21;100.00
22047;BME280;11187;49.412;20.956;2023-01-28T06:27:10;95206.75;;;-3.20;100.00
22047;BME280;11187;49.412;20.956;2023-01-28T06:29:52;95216.63;;;-3.23;100.00
22047;BME280;11187;49.412;20.956;2023-01-28T06:32:26;95210.84;;;-3.22;100.00
22047;BME280;11187;49.412;20.956;2023-01-28T06:35:13;95214.97;;;-3.23;100.00
22047;BME280;11187;49.412;20.956;2023-01-28T06:37:47;95224.19;;;-3.22;100.00
22047;BME280;11187;49.412;20.956;2023-01-28T06:40:33;95216.69;;;-3.22;100.00
22047;BME280;11187;49.412;20.956;2023-01-28T06:43:07;95234.16;;;-3.23;100.00
22047;BME280;11187;49.412;20.956;2023-01-28T06:45:54;95229.22;;;-3.22;100.00
22047;BME280;11187;49.412;20.956;2023-01-28T06:48:27;95233.56;;;-3.16;100.00
22047;BME280;11187;49.412;20.956;2023-01-28T06:51:14;95231.13;;;-3.15;100.00
22047;BME280;11187;49.412;20.956;2023-01-28T06:53:50;95240.28;;;-3.15;100.00
22047;BME280;11187;49.412;20.956;2023-01-28T06:56:43;95240.34;;;-3.13;100.00
22047;BME280;11187;49.412;20.956;2023-01-28T06:59:37;95237.81;;;-3.13;100.00
22047;BME280;11187;49.412;20.956;2023-01-28T07:02:11;95237.81;;;-3.13;100.00
22047;BME280;11187;49.412;20.956;2023-01-28T07:04:57;95236.97;;;-3.14;100.00
22047;BME280;11187;49.412;20.956;2023-01-28T07:07:31;95255.41;;;-3.12;100.00
22047;BME280;11187;49.412;20.956;2023-01-28T07:10:25;95256.09;;;-3.16;100.00
22047;BME280;11187;49.412;20.956;2023-01-28T07:13:22;95262.69;;;-3.18;100.00
22047;BME280;11187;49.412;20.956;2023-01-28T07:15:56;95267.00;;;-3.16;100.00
22047;BME280;11187;49.412;20.956;2023-01-28T07:18:49;95271.13;;;-3.16;100.00
22047;BME280;11187;49.412;20.956;2023-01-28T07:21:23;95274.50;;;-3.16;100.00
22047;BME280;11187;49.412;20.956;2023-01-28T07:24:16;95279.56;;;-3.14;100.00
22047;BME280;11187;49.412;20.956;2023-01-28T07:26:50;95276.44;;;-3.08;100.00
22047;BME280;11187;49.412;20.956;2023-01-28T07:29:36;95282.28;;;-3.08;100.00
22047;BME280;11187;49.412;20.956;2023-01-28T07:32:10;95281.53;;;-3.05;100.00
22047;BME280;11187;49.412;20.956;2023-01-28T07:35:04;95289.91;;;-3.05;100.00
22047;BME280;11187;49.412;20.956;2023-01-28T07:37:37;95279.84;;;-3.06;100.00
22047;BME280;11187;49.412;20.956;2023-01-28T07:40:24;95290.88;;;-3.01;100.00
22047;BME280;11187;49.412;20.956;2023-01-28T07:42:58;95285.97;;;-2.98;100.00
22047;BME280;11187;49.412;20.956;2023-01-28T07:45:45;95279.13;;;-3.02;100.00
22047;BME280;11187;49.412;20.956;2023-01-28T07:48:19;95285.94;;;-3.00;100.00
22047;BME280;11187;49.412;20.956;2023-01-28T07:51:12;95285.97;;;-2.98;100.00
22047;BME280;11187;49.412;20.956;2023-01-28T07:54:07;95290.03;;;-3.02;100.00
22047;BME280;11187;49.412;20.956;2023-01-28T07:56:41;95293.28;;;-3.04;100.00
22047;BME280;11187;49.412;20.956;2023-01-28T07:59:27;95287.41;;;-3.05;100.00
22047;BME280;11187;49.412;20.956;2023-01-28T08:02:01;95291.72;;;-3.01;100.00
22047;BME280;11187;49.412;20.956;2023-01-28T08:04:47;95297.56;;;-3.00;100.00
22047;BME280;11187;49.412;20.956;2023-01-28T08:07:21;95297.72;;;-2.97;100.00
22047;BME280;11187;49.412;20.956;2023-01-28T08:10:09;95305.16;;;-2.99;100.00
22047;BME280;11187;49.412;20.956;2023-01-28T08:12:57;95314.44;;;-2.96;100.00
22047;BME280;11187;49.412;20.956;2023-01-28T08:15:44;95318.66;;;-2.95;100.00
22047;BME280;11187;49.412;20.956;2023-01-28T08:18:18;95318.59;;;-2.97;100.00
22047;BME280;11187;49.412;20.956;2023-01-28T08:21:04;95323.53;;;-2.98;100.00
22047;BME280;11187;49.412;20.956;2023-01-28T08:23:58;95313.53;;;-2.98;100.00
22047;BME280;11187;49.412;20.956;2023-01-28T08:26:52;95306.84;;;-2.98;100.00
22047;BME280;11187;49.412;20.956;2023-01-28T08:29:26;95310.22;;;-2.97;100.00
22047;BME280;11187;49.412;20.956;2023-01-28T08:32:19;95318.50;;;-3.00;100.00
22047;BME280;11187;49.412;20.956;2023-01-28T08:34:53;95306.59;;;-3.05;100.00
22047;BME280;11187;49.412;20.956;2023-01-28T08:37:39;95312.41;;;-3.06;100.00
22047;BME280;11187;49.412;20.956;2023-01-28T08:40:13;95310.09;;;-3.00;100.00
22047;BME280;11187;49.412;20.956;2023-01-28T08:43:00;95310.28;;;-2.96;100.00
22047;BME280;11187;49.412;20.956;2023-01-28T08:45:33;95309.53;;;-2.93;100.00
22047;BME280;11187;49.412;20.956;2023-01-28T08:48:19;95318.66;;;-2.95;100.00
22047;BME280;11187;49.412;20.956;2023-01-28T08:50:57;95307.91;;;-2.92;100.00
22047;BME280;11187;49.412;20.956;2023-01-28T08:53:51;95307.16;;;-2.90;100.00
22047;BME280;11187;49.412;20.956;2023-01-28T08:56:25;95315.59;;;-2.86;100.00
22047;BME280;11187;49.412;20.956;2023-01-28T08:59:18;95324.84;;;-2.85;100.00
22047;BME280;11187;49.412;20.956;2023-01-28T09:02:12;95326.59;;;-2.83;100.00
22047;BME280;11187;49.412;20.956;2023-01-28T09:05:11;95325.63;;;-2.86;100.00
22047;BME280;11187;49.412;20.956;2023-01-28T09:07:45;95332.44;;;-2.84;100.00
22047;BME280;11187;49.412;20.956;2023-01-28T09:10:39;95327.44;;;-2.82;100.00
22047;BME280;11187;49.412;20.956;2023-01-28T09:13:33;95336.69;;;-2.81;100.00
22047;BME280;11187;49.412;20.956;2023-01-28T09:16:27;95330.88;;;-2.80;100.00
22047;BME280;11187;49.412;20.956;2023-01-28T09:19:01;95334.34;;;-2.77;100.00
22047;BME280;11187;49.412;20.956;2023-01-28T09:21:47;95326.84;;;-2.77;100.00
22047;BME280;11187;49.412;20.956;2023-01-28T09:24:41;95340.38;;;-2.71;100.00
22047;BME280;11187;49.412;20.956;2023-01-28T09:27:15;95333.59;;;-2.74;100.00
22047;BME280;11187;49.412;20.956;2023-01-28T09:30:02;95337.81;;;-2.73;100.00
22047;BME280;11187;49.412;20.956;2023-01-28T09:32:35;95333.59;;;-2.74;100.00
22047;BME280;11187;49.412;20.956;2023-01-28T09:35:23;95338.72;;;-2.71;100.00
22047;BME280;11187;49.412;20.956;2023-01-28T09:37:57;95332.84;;;-2.71;100.00
22047;BME280;11187;49.412;20.956;2023-01-28T09:40:50;95337.97;;;-2.68;100.00
22047;BME280;11187;49.412;20.956;2023-01-28T09:46:31;95327.94;;;-2.68;100.00
22047;BME280;11187;49.412;20.956;2023-01-28T09:49:45;95330.44;;;-2.68;100.00
22047;BME280;11187;49.412;20.956;2023-01-28T09:52:21;95329.69;;;-2.66;100.00
22047;BME280;11187;49.412;20.956;2023-01-28T09:55:29;95333.09;;;-2.65;100.00
22047;BME280;11187;49.412;20.956;2023-01-28T09:58:23;95333.19;;;-2.62;100.00
22047;BME280;11187;49.412;20.956;2023-01-28T10:10:49;95315.19;;;-2.50;100.00
22047;BME280;11187;49.412;20.956;2023-01-28T10:17:25;95324.69;;;-2.42;100.00
22047;BME280;11187;49.412;20.956;2023-01-28T10:20:37;95316.19;;;-2.47;100.00
22047;BME280;11187;49.412;20.956;2023-01-28T10:23:51;95321.19;;;-2.47;100.00
22047;BME280;11187;49.412;20.956;2023-01-28T10:26:47;95322.69;;;-2.52;100.00
22047;BME280;11187;49.412;20.956;2023-01-28T10:29:24;95313.38;;;-2.55;100.00
22047;BME280;11187;49.412;20.956;2023-01-28T10:32:27;95316.53;;;-2.60;100.00
22047;BME280;11187;49.412;20.956;2023-01-28T10:35:21;95319.00;;;-2.62;100.00
22047;BME280;11187;49.412;20.956;2023-01-28T10:38:00;95313.97;;;-2.62;100.00
22047;BME280;11187;49.412;20.956;2023-01-28T10:40:59;95313.19;;;-2.61;100.00
22047;BME280;11187;49.412;20.956;2023-01-28T10:43:55;95313.97;;;-2.62;100.00
22047;BME280;11187;49.412;20.956;2023-01-28T10:46:32;95313.28;;;-2.58;100.00
22047;BME280;11187;49.412;20.956;2023-01-28T10:49:25;95301.88;;;-2.49;100.00
22047;BME280;11187;49.412;20.956;2023-01-28T10:52:09;95304.66;;;-2.42;100.00
22047;BME280;11187;49.412;20.956;2023-01-28T10:55:03;95314.06;;;-2.35;100.00
22047;BME280;11187;49.412;20.956;2023-01-28T10:57:41;95310.78;;;-2.34;100.00
22047;BME280;11187;49.412;20.956;2023-01-28T11:00:33;95309.97;;;-2.33;100.00
22047;BME280;11187;49.412;20.956;2023-01-28T11:03:16;95309.34;;;-2.27;100.00
22047;BME280;11187;49.412;20.956;2023-01-28T11:06:17;95307.63;;;-2.28;100.00
22047;BME280;11187;49.412;20.956;2023-01-28T11:08:55;95303.66;;;-2.21;100.00
22047;BME280;11187;49.412;20.956;2023-01-28T11:11:41;95296.34;;;-2.15;100.00
22047;BME280;11187;49.412;20.956;2023-01-28T11:14:22;95299.00;;;-2.11;100.00
22047;BME280;11187;49.412;20.956;2023-01-28T11:17:15;95295.69;;;-2.10;100.00
22047;BME280;11187;49.412;20.956;2023-01-28T11:19:54;95298.19;;;-2.10;100.00
22047;BME280;11187;49.412;20.956;2023-01-28T11:22:42;95299.25;;;-2.03;100.00
22047;BME280;11187;49.412;20.956;2023-01-28T11:25:36;95292.63;;;-2.01;100.00
22047;BME280;11187;49.412;20.956;2023-01-28T11:28:17;95287.53;;;-2.04;100.00
22047;BME280;11187;49.412;20.956;2023-01-28T11:31:05;95293.09;;;-2.13;100.00
22047;BME280;11187;49.412;20.956;2023-01-28T11:33:43;95304.06;;;-2.09;100.00
22047;BME280;11187;49.412;20.956;2023-01-28T11:36:49;95311.41;;;-2.15;100.00
22047;BME280;11187;49.412;20.956;2023-01-28T11:39:24;95302.28;;;-2.13;100.00
22047;BME280;11187;49.412;20.956;2023-01-28T11:42:20;95304.78;;;-2.13;100.00
22047;BME280;11187;49.412;20.956;2023-01-28T11:44:54;95301.69;;;-2.04;100.00
22047;BME280;11187;49.412;20.956;2023-01-28T12:00:19;95306.00;;;-2.00;100.00
22047;BME280;11187;49.412;20.956;2023-01-28T12:03:14;95309.34;;;-2.01;100.00
22047;BME280;11187;49.412;20.956;2023-01-28T12:06:24;95308.38;;;-2.05;100.00
22047;BME280;11187;49.412;20.956;2023-01-28T12:16:12;95303.78;;;-1.93;100.00
22047;BME280;11187;49.412;20.956;2023-01-28T12:21:49;95311.25;;;-1.94;100.00
22047;BME280;11187;49.412;20.956;2023-01-28T12:28:14;95304.53;;;-1.95;100.00
22047;BME280;11187;49.412;20.956;2023-01-28T12:34:31;95298.69;;;-1.94;100.00
22047;BME280;11187;49.412;20.956;2023-01-28T12:37:47;95304.53;;;-1.95;100.00
22047;BME280;11187;49.412;20.956;2023-01-28T12:40:46;95300.38;;;-1.93;100.00
22047;BME280;11187;49.412;20.956;2023-01-28T12:54:58;95303.63;;;-1.97;100.00
22047;BME280;11187;49.412;20.956;2023-01-28T12:57:40;95306.06;;;-1.99;100.00
22047;BME280;11187;49.412;20.956;2023-01-28T13:00:34;95313.59;;;-1.99;100.00
22047;BME280;11187;49.412;20.956;2023-01-28T13:03:43;95315.97;;;-2.03;100.00
22047;BME280;11187;49.412;20.956;2023-01-28T13:06:50;95314.06;;;-2.11;100.00
22047;BME280;11187;49.412;20.956;2023-01-28T13:09:47;95313.09;;;-2.14;100.00
22047;BME280;11187;49.412;20.956;2023-01-28T13:12:24;95318.66;;;-2.23;100.00
22047;BME280;11187;49.412;20.956;2023-01-28T13:15:14;95323.63;;;-2.24;100.00
22047;BME280;11187;49.412;20.956;2023-01-28T13:20:50;95326.75;;;-2.32;100.00
22047;BME280;11187;49.412;20.956;2023-01-28T13:23:25;95334.41;;;-2.27;100.00
22047;BME280;11187;49.412;20.956;2023-01-28T13:28:52;95332.31;;;-2.39;100.00
22047;BME280;11187;49.412;20.956;2023-01-28T13:31:42;95336.63;;;-2.36;100.00
22047;BME280;11187;49.412;20.956;2023-01-28T13:40:26;95347.94;;;-2.46;100.00
22047;BME280;11187;49.412;20.956;2023-01-28T13:43:22;95347.78;;;-2.50;100.00
22047;BME280;11187;49.412;20.956;2023-01-28T13:46:28;95352.03;;;-2.49;100.00
22047;BME280;11187;49.412;20.956;2023-01-28T13:49:37;95347.63;;;-2.55;100.00
22047;BME280;11187;49.412;20.956;2023-01-28T13:52:44;95355.09;;;-2.57;100.00
22047;BME280;11187;49.412;20.956;2023-01-28T13:55:41;95359.25;;;-2.57;100.00
22047;BME280;11187;49.412;20.956;2023-01-28T14:01:58;95359.09;;;-2.62;100.00
22047;BME280;11187;49.412;20.956;2023-01-28T14:10:55;95380.72;;;-2.64;100.00
22047;BME280;11187;49.412;20.956;2023-01-28T14:17:43;95384.63;;;-2.72;100.00
22047;BME280;11187;49.412;20.956;2023-01-28T14:20:42;95382.97;;;-2.71;100.00
22047;BME280;11187;49.412;20.956;2023-01-28T14:23:29;95379.63;;;-2.72;100.00
22047;BME280;11187;49.412;20.956;2023-01-28T14:26:35;95388.09;;;-2.68;100.00
22047;BME280;11187;49.412;20.956;2023-01-28T14:32:22;95385.59;;;-2.68;100.00
22047;BME280;11187;49.412;20.956;2023-01-28T14:35:17;95389.81;;;-2.67;100.00
22047;BME280;11187;49.412;20.956;2023-01-28T14:37:51;95393.09;;;-2.68;100.00
22047;BME280;11187;49.412;20.956;2023-01-28T14:40:45;95396.47;;;-2.68;100.00
22047;BME280;11187;49.412;20.956;2023-01-28T14:43:23;95395.75;;;-2.65;100.00
22047;BME280;11187;49.412;20.956;2023-01-28T14:58:26;95400.69;;;-2.67;100.00
22047;BME280;11187;49.412;20.956;2023-01-28T15:01:19;95401.53;;;-2.66;100.00
22047;BME280;11187;49.412;20.956;2023-01-28T15:04:28;95414.81;;;-2.69;100.00
22047;BME280;11187;49.412;20.956;2023-01-28T15:07:25;95411.28;;;-2.74;100.00
22047;BME280;11187;49.412;20.956;2023-01-28T15:10:02;95417.06;;;-2.75;100.00
22047;BME280;11187;49.412;20.956;2023-01-28T15:12:54;95420.31;;;-2.78;100.00
22047;BME280;11187;49.412;20.956;2023-01-28T15:15:31;95418.63;;;-2.79;100.00
22047;BME280;11187;49.412;20.956;2023-01-28T15:18:20;95423.66;;;-2.79;100.00
22047;BME280;11187;49.412;20.956;2023-01-28T15:20:57;95426.06;;;-2.80;100.00
22047;BME280;11187;49.412;20.956;2023-01-28T15:23:47;95428.53;;;-2.82;100.00
22047;BME280;11187;49.412;20.956;2023-01-28T15:26:24;95432.69;;;-2.82;100.00
22047;BME280;11187;49.412;20.956;2023-01-28T15:29:55;95434.44;;;-2.80;100.00
22047;BME280;11187;49.412;20.956;2023-01-28T15:32:30;95437.88;;;-2.78;100.00
22047;BME280;11187;49.412;20.956;2023-01-28T15:35:16;95431.19;;;-2.77;100.00
22047;BME280;11187;49.412;20.956;2023-01-28T15:37:50;95435.44;;;-2.76;100.00
22047;BME280;11187;49.412;20.956;2023-01-28T15:40:41;95436.16;;;-2.79;100.00
22047;BME280;11187;49.412;20.956;2023-01-28T15:43:24;95436.22;;;-2.77;100.00
22047;BME280;11187;49.412;20.956;2023-01-28T15:46:12;95430.34;;;-2.78;100.00
22047;BME280;11187;49.412;20.956;2023-01-28T15:48:52;95436.22;;;-2.77;100.00
22047;BME280;11187;49.412;20.956;2023-01-28T15:51:52;95445.56;;;-2.73;100.00
22047;BME280;11187;49.412;20.956;2023-01-28T15:54:50;95440.53;;;-2.73;100.00
22047;BME280;11187;49.412;20.956;2023-01-28T15:57:45;95449.78;;;-2.72;100.00
22047;BME280;11187;49.412;20.956;2023-01-28T16:00:39;95447.16;;;-2.75;100.00
22047;BME280;11187;49.412;20.956;2023-01-28T16:03:18;95451.38;;;-2.74;100.00
22047;BME280;11187;49.412;20.956;2023-01-28T16:06:12;95449.72;;;-2.74;100.00
22047;BME280;11187;49.412;20.956;2023-01-28T16:08:54;95452.16;;;-2.75;100.00
22047;BME280;11187;49.412;20.956;2023-01-28T16:11:42;95452.97;;;-2.76;100.00
22047;BME280;11187;49.412;20.956;2023-01-28T16:14:19;95461.34;;;-2.76;100.00
22047;BME280;11187;49.412;20.956;2023-01-28T16:17:20;95450.47;;;-2.76;100.00
22047;BME280;11187;49.412;20.956;2023-01-28T16:20:26;95451.25;;;-2.77;100.00
22047;BME280;11187;49.412;20.956;2023-01-28T16:23:01;95457.06;;;-2.78;100.00